createdAt,value
2018-08-09T00:01:47.785Z,44.73
2018-08-09T00:04:17.564Z,44.68
2018-08-09T00:06:48.053Z,45.34
2018-08-09T00:09:17.806Z,45.46
2018-08-09T00:11:47.573Z,45.90
2018-08-09T00:14:18.352Z,45.06
2018-08-09T00:16:49.124Z,44.10
2018-08-09T00:19:18.773Z,44.47
2018-08-09T00:21:53.243Z,43.76
2018-08-09T00:24:24.108Z,43.64
2018-08-09T00:26:55.438Z,43.33
2018-08-09T00:29:25.199Z,43.00
2018-08-09T00:31:56.054Z,43.64
2018-08-09T00:34:27.412Z,43.32
2018-08-09T00:36:57.645Z,43.65
2018-08-09T00:39:31.863Z,43.01
2018-08-09T00:42:03.467Z,43.90
2018-08-09T00:44:33.704Z,43.89
2018-08-09T00:47:04.428Z,43.06
2018-08-09T00:49:34.248Z,43.20
2018-08-09T00:52:05.824Z,42.83
2018-08-09T00:54:36.141Z,43.33
2018-08-09T00:57:10.282Z,42.90
2018-08-09T00:59:39.920Z,43.33
2018-08-09T01:02:12.048Z,43.73
2018-08-09T01:04:42.286Z,42.88
2018-08-09T01:07:20.220Z,43.06
2018-08-09T01:09:53.719Z,42.39
2018-08-09T01:12:23.255Z,42.18
2018-08-09T01:14:52.590Z,42.67
2018-08-09T01:17:23.376Z,41.92
2018-08-09T01:19:54.207Z,42.27
2018-08-09T01:22:24.269Z,42.96
2018-08-09T01:24:53.699Z,41.97
2018-08-09T01:27:23.056Z,42.60
2018-08-09T01:29:52.560Z,42.59
2018-08-09T01:35:11.940Z,43.03
2018-08-09T01:37:41.402Z,43.34
2018-08-09T01:40:15.047Z,43.10
2018-08-09T01:42:55.314Z,42.68
2018-08-09T01:45:25.658Z,43.57
2018-08-09T01:47:55.193Z,43.43
2018-08-09T01:50:24.706Z,43.89
2018-08-09T01:52:54.062Z,43.47
2018-08-09T01:55:23.708Z,43.23
2018-08-09T01:57:53.083Z,43.79
2018-08-09T02:00:23.423Z,44.57
2018-08-09T02:02:54.195Z,43.73
2018-08-09T02:05:25.079Z,44.21
2018-08-09T02:07:55.635Z,45.04
2018-08-09T02:10:25.863Z,44.50
2018-08-09T02:12:56.062Z,44.25
2018-08-09T02:15:29.581Z,43.96
2018-08-09T02:17:58.718Z,44.72
2018-08-09T02:20:28.516Z,44.13
2018-08-09T02:22:57.982Z,44.37
2018-08-09T02:25:27.682Z,44.82
2018-08-09T02:27:57.199Z,44.75
2018-08-09T02:30:27.852Z,43.97
2018-08-09T02:32:57.358Z,44.63
2018-08-09T02:35:27.177Z,45.39
2018-08-09T02:37:56.548Z,45.28
2018-08-09T02:40:26.016Z,45.07
2018-08-09T02:42:58.701Z,46.09
2018-08-09T02:45:28.705Z,46.17
2018-08-09T02:47:58.244Z,46.60
2018-08-09T02:50:28.057Z,45.93
2018-08-09T02:52:57.765Z,45.55
2018-08-09T02:55:27.524Z,46.17
2018-08-09T02:57:58.850Z,45.39
2018-08-09T03:00:28.953Z,45.54
2018-08-09T03:02:58.870Z,45.55
2018-08-09T03:05:28.356Z,45.58
2018-08-09T03:07:58.232Z,45.37
2018-08-09T03:10:28.992Z,45.12
2018-08-09T03:12:58.288Z,45.91
2018-08-09T03:15:30.104Z,45.24
2018-08-09T03:18:01.418Z,46.05
2018-08-09T03:20:31.134Z,45.68
2018-08-09T03:23:03.620Z,45.82
2018-08-09T03:25:35.208Z,45.33
2018-08-09T03:28:05.237Z,44.77
2018-08-09T03:30:35.197Z,44.40
2018-08-09T03:33:06.483Z,44.34
2018-08-09T03:35:36.825Z,45.42
2018-08-09T03:38:06.824Z,45.21
2018-08-09T03:40:37.364Z,44.67
2018-08-09T03:43:07.214Z,44.55
2018-08-09T03:45:37.029Z,44.98
2018-08-09T03:48:06.467Z,44.00
2018-08-09T03:50:36.247Z,44.18
2018-08-09T03:53:05.760Z,44.69
2018-08-09T03:55:35.232Z,43.62
2018-08-09T03:58:04.741Z,44.50
2018-08-09T04:00:34.927Z,44.30
2018-08-09T04:03:04.316Z,44.92
2018-08-09T04:05:38.870Z,45.20
2018-08-09T04:08:08.330Z,45.44
2018-08-09T04:10:37.766Z,44.48
2018-08-09T04:13:07.030Z,44.51
2018-08-09T04:15:37.295Z,44.78
2018-08-09T04:18:06.663Z,44.82
2018-08-09T04:20:35.897Z,45.16
2018-08-09T04:23:05.635Z,46.26
2018-08-09T04:25:35.213Z,46.30
2018-08-09T04:28:05.644Z,45.68
2018-08-09T04:30:36.328Z,46.01
2018-08-09T04:33:06.236Z,45.92
2018-08-09T04:35:35.591Z,46.17
2018-08-09T04:38:05.573Z,46.19
2018-08-09T04:40:35.793Z,45.67
2018-08-09T04:43:06.244Z,45.92
2018-08-09T04:45:38.043Z,45.97
2018-08-09T04:48:13.928Z,45.25
2018-08-09T04:50:43.314Z,45.65
2018-08-09T04:53:12.749Z,45.44
2018-08-09T04:55:44.477Z,44.70
2018-08-09T04:58:14.069Z,44.72
2018-08-09T05:00:43.514Z,45.02
2018-08-09T05:03:17.595Z,44.63
2018-08-09T05:05:48.988Z,43.82
2018-08-09T05:08:20.768Z,44.39
2018-08-09T05:10:50.100Z,43.74
2018-08-09T05:13:20.911Z,43.65
2018-08-09T05:16:00.432Z,43.43
2018-08-09T05:18:31.112Z,43.64
2018-08-09T05:23:41.945Z,43.95
2018-08-09T05:26:11.825Z,44.24
2018-08-09T05:28:41.122Z,44.08
2018-08-09T05:31:10.701Z,44.27
2018-08-09T05:33:41.809Z,44.89
2018-08-09T05:36:11.180Z,44.81
2018-08-09T05:38:40.589Z,44.61
2018-08-09T05:41:10.556Z,44.32
2018-08-09T05:43:41.698Z,45.50
2018-08-09T05:46:11.542Z,44.70
2018-08-09T05:49:02.092Z,44.89
2018-08-09T05:51:32.240Z,45.06
2018-08-09T05:54:05.032Z,45.34
2018-08-09T05:56:38.982Z,44.34
2018-08-09T05:59:08.465Z,45.23
2018-08-09T06:01:40.395Z,45.10
2018-08-09T06:04:10.474Z,44.56
2018-08-09T06:06:41.754Z,44.17
2018-08-09T06:09:14.150Z,43.41
2018-08-09T06:11:43.853Z,42.42
2018-08-09T06:14:19.840Z,43.38
2018-08-09T06:16:49.693Z,43.06
2018-08-09T06:19:18.979Z,43.68
2018-08-09T06:21:54.236Z,42.79
2018-08-09T06:24:23.679Z,43.15
2018-08-09T06:26:53.039Z,43.56
2018-08-09T06:29:23.315Z,43.60
2018-08-09T06:31:53.799Z,42.77
2018-08-09T06:34:27.765Z,42.15
2018-08-09T06:36:59.161Z,42.24
2018-08-09T06:39:29.991Z,42.68
2018-08-09T06:42:00.956Z,42.98
2018-08-09T06:44:30.234Z,42.53
2018-08-09T06:47:01.274Z,43.46
2018-08-09T06:49:31.807Z,43.36
2018-08-09T06:52:14.468Z,43.57
2018-08-09T06:54:45.143Z,43.18
2018-08-09T06:57:15.627Z,42.23
2018-08-09T06:59:45.077Z,42.55
2018-08-09T07:02:15.426Z,41.48
2018-08-09T07:04:45.215Z,40.50
2018-08-09T07:07:14.805Z,39.84
2018-08-09T07:09:50.792Z,38.70
2018-08-09T07:12:21.279Z,38.10
2018-08-09T07:14:51.738Z,38.20
2018-08-09T07:17:22.952Z,36.94
2018-08-09T07:19:54.920Z,35.72
2018-08-09T07:22:28.404Z,36.41
2018-08-09T07:24:57.798Z,37.76
2018-08-09T07:27:27.564Z,36.95
2018-08-09T07:30:04.436Z,37.08
2018-08-09T07:32:36.116Z,37.81
2018-08-09T07:35:06.296Z,38.89
2018-08-09T07:37:36.179Z,39.97
2018-08-09T07:40:14.418Z,39.89
2018-08-09T07:42:50.317Z,39.58
2018-08-09T07:45:20.466Z,39.32
2018-08-09T07:47:50.565Z,38.58
2018-08-09T07:50:27.504Z,38.69
2018-08-09T07:53:03.248Z,37.88
2018-08-09T07:55:40.273Z,38.38
2018-08-09T07:58:19.113Z,37.77
2018-08-09T08:00:52.833Z,37.63
2018-08-09T08:03:43.067Z,38.23
2018-08-09T08:09:06.336Z,37.67
2018-08-09T08:11:36.946Z,37.61
2018-08-09T08:14:07.088Z,37.67
2018-08-09T08:16:38.257Z,38.19
2018-08-09T08:19:15.424Z,37.82
2018-08-09T08:21:45.877Z,37.71
2018-08-09T08:24:16.298Z,37.78
2018-08-09T08:29:30.909Z,36.99
2018-08-09T08:32:10.700Z,37.63
2018-08-09T08:34:47.593Z,36.94
2018-08-09T08:37:17.746Z,36.57
2018-08-09T08:39:50.748Z,36.34
2018-08-09T08:42:20.243Z,36.85
2018-08-09T08:44:49.994Z,36.83
2018-08-09T08:47:23.979Z,36.81
2018-08-09T08:49:55.314Z,37.16
2018-08-09T08:52:25.323Z,37.17
2018-08-09T08:54:56.226Z,37.05
2018-08-09T08:57:30.240Z,37.78
2018-08-09T09:00:01.872Z,37.03
2018-08-09T09:02:32.292Z,37.71
2018-08-09T09:05:08.908Z,38.04
2018-08-09T09:07:40.311Z,37.96
2018-08-09T09:10:18.990Z,37.70
2018-08-09T09:13:02.619Z,38.62
2018-08-09T09:15:33.033Z,36.64
2018-08-09T09:18:08.421Z,37.63
2018-08-09T09:20:47.281Z,37.50
2018-08-09T09:23:21.444Z,37.21
2018-08-09T09:25:57.241Z,35.61
2018-08-09T09:28:28.298Z,36.16
2018-08-09T09:31:00.683Z,35.28
2018-08-09T09:33:34.760Z,34.62
2018-08-09T09:36:07.863Z,35.13
2018-08-09T09:38:39.996Z,34.76
2018-08-09T09:42:13.379Z,35.12
2018-08-09T09:44:50.802Z,35.53
2018-08-09T09:47:28.747Z,35.08
2018-08-09T09:50:01.752Z,34.35
2018-08-09T09:52:40.476Z,33.29
2018-08-09T09:55:13.569Z,33.50
2018-08-09T10:00:25.958Z,32.65
2018-08-09T10:03:03.152Z,31.63
2018-08-09T10:05:35.657Z,31.51
2018-08-09T10:08:13.242Z,31.76
2018-08-09T10:10:44.394Z,32.19
2018-08-09T10:13:15.413Z,32.06
2018-08-09T10:15:47.884Z,31.59
2018-08-09T10:18:29.104Z,31.82
2018-08-09T10:23:38.576Z,30.81
2018-08-09T10:26:10.507Z,30.92
2018-08-09T10:28:40.296Z,30.09
2018-08-09T10:31:10.803Z,30.09
2018-08-09T10:33:41.870Z,29.82
2018-08-09T10:36:12.047Z,29.60
2018-08-09T10:39:01.276Z,30.68
2018-08-09T10:41:31.942Z,29.97
2018-08-09T10:44:06.158Z,29.95
2018-08-09T10:46:37.533Z,30.13
2018-08-09T10:49:08.888Z,29.75
2018-08-09T10:51:44.988Z,28.85
2018-08-09T10:54:17.876Z,29.67
2018-08-09T10:56:55.796Z,29.98
2018-08-09T10:59:26.582Z,30.46
2018-08-09T11:02:10.208Z,29.25
2018-08-09T11:04:39.947Z,29.36
2018-08-09T11:07:11.334Z,29.89
2018-08-09T11:09:40.638Z,29.75
2018-08-09T11:12:11.385Z,29.55
2018-08-09T11:14:42.689Z,30.69
2018-08-09T11:17:14.365Z,30.21
2018-08-09T11:19:44.295Z,30.59
2018-08-09T11:22:18.086Z,30.54
2018-08-09T11:24:48.008Z,30.32
2018-08-09T11:27:18.325Z,30.26
2018-08-09T11:29:47.789Z,30.71
2018-08-09T11:32:20.836Z,30.42
2018-08-09T11:34:54.230Z,30.60
2018-08-09T11:37:25.688Z,29.59
2018-08-09T11:39:57.876Z,29.93
2018-08-09T11:42:27.485Z,30.34
2018-08-09T11:44:58.572Z,30.73
2018-08-09T11:47:28.229Z,30.09
2018-08-09T11:49:59.210Z,29.88
2018-08-09T11:52:29.322Z,30.26
2018-08-09T11:54:59.346Z,30.11
2018-08-09T11:57:31.792Z,30.91
2018-08-09T12:00:01.942Z,31.55
2018-08-09T12:02:35.960Z,31.44
2018-08-09T12:05:06.999Z,32.48
2018-08-09T12:07:38.469Z,32.29
2018-08-09T12:10:10.484Z,31.45
2018-08-09T12:12:40.347Z,31.65
2018-08-09T12:17:52.240Z,31.62
2018-08-09T12:20:22.574Z,32.14
2018-08-09T12:22:52.349Z,31.61
2018-08-09T12:25:23.616Z,31.92
2018-08-09T12:27:53.537Z,32.26
2018-08-09T12:30:26.104Z,32.08
2018-08-09T12:32:55.457Z,31.88
2018-08-09T12:35:26.234Z,32.15
2018-08-09T12:37:55.873Z,32.29
2018-08-09T12:40:34.309Z,32.70
2018-08-09T12:43:04.364Z,33.26
2018-08-09T12:45:35.285Z,33.12
2018-08-09T12:48:07.678Z,32.55
2018-08-09T12:50:38.928Z,32.92
2018-08-09T12:53:09.031Z,33.58
2018-08-09T12:55:39.049Z,34.03
2018-08-09T12:58:11.255Z,35.25
2018-08-09T13:00:56.032Z,36.68
2018-08-09T13:03:30.380Z,37.32
2018-08-09T13:06:00.115Z,36.10
2018-08-09T13:09:27.499Z,37.00
2018-08-09T13:12:13.845Z,35.92
2018-08-09T13:14:45.576Z,36.95
2018-08-09T13:17:17.267Z,36.50
2018-08-09T13:22:22.594Z,36.25
2018-08-09T13:24:55.111Z,35.75
2018-08-09T13:27:26.256Z,35.26
2018-08-09T13:29:59.318Z,36.43
2018-08-09T13:32:30.764Z,35.96
2018-08-09T13:35:03.003Z,36.08
2018-08-09T13:37:35.370Z,35.76
2018-08-09T13:40:06.636Z,36.01
2018-08-09T13:42:42.638Z,35.92
2018-08-09T13:45:24.666Z,35.33
2018-08-09T13:47:55.500Z,36.32
2018-08-09T13:50:31.575Z,36.73
2018-08-09T13:53:06.636Z,36.50
2018-08-09T13:55:42.273Z,36.83
2018-08-09T13:58:16.357Z,36.98
2018-08-09T14:00:53.615Z,37.51
2018-08-09T14:03:35.376Z,38.58
2018-08-09T14:06:23.319Z,38.38
2018-08-09T14:08:58.452Z,38.47
2018-08-09T14:11:28.744Z,38.31
2018-08-09T14:13:59.087Z,38.34
2018-08-09T14:16:39.963Z,37.15
2018-08-09T14:19:10.251Z,38.43
2018-08-09T14:21:42.508Z,40.77
2018-08-09T14:24:12.914Z,40.61
2018-08-09T14:26:42.859Z,43.20
2018-08-09T14:29:16.741Z,45.80
2018-08-09T14:31:48.373Z,47.13
2018-08-09T14:34:18.809Z,45.56
2018-08-09T14:36:53.153Z,46.57
2018-08-09T14:39:24.258Z,47.16
2018-08-09T14:41:53.688Z,47.39
2018-08-09T14:44:23.082Z,46.00
2018-08-09T14:46:53.784Z,46.25
2018-08-09T14:49:24.623Z,45.04
2018-08-09T14:51:58.218Z,44.32
2018-08-09T14:54:31.408Z,44.73
2018-08-09T14:57:03.568Z,44.45
2018-08-09T14:59:34.810Z,44.10
2018-08-09T15:02:08.509Z,42.89
2018-08-09T15:04:40.649Z,42.74
2018-08-09T15:07:11.790Z,43.90
2018-08-09T15:09:43.193Z,43.56
2018-08-09T15:12:12.942Z,42.93
2018-08-09T15:14:43.855Z,43.21
2018-08-09T15:17:14.481Z,43.27
2018-08-09T15:19:44.012Z,44.68
2018-08-09T15:22:14.673Z,44.83
2018-08-09T15:24:47.476Z,43.27
2018-08-09T15:27:18.058Z,44.45
2018-08-09T15:29:49.004Z,44.37
2018-08-09T15:32:21.086Z,44.23
2018-08-09T15:34:51.836Z,43.98
2018-08-09T15:37:22.203Z,43.62
2018-08-09T15:39:52.840Z,42.13
2018-08-09T15:42:24.395Z,43.33
2018-08-09T15:45:00.773Z,42.39
2018-08-09T15:47:33.408Z,41.63
2018-08-09T15:50:07.291Z,41.63
2018-08-09T15:52:38.952Z,41.31
2018-08-09T15:55:10.241Z,40.78
2018-08-09T15:57:42.250Z,40.35
2018-08-09T16:00:22.415Z,40.18
2018-08-09T16:02:59.898Z,40.56
2018-08-09T16:05:36.644Z,40.20
2018-08-09T16:08:12.790Z,41.41
2018-08-09T16:10:43.913Z,41.68
2018-08-09T16:13:13.902Z,44.88
2018-08-09T16:15:44.692Z,44.75
2018-08-09T16:18:15.568Z,45.51
2018-08-09T16:20:52.196Z,46.78
2018-08-09T16:23:28.632Z,43.22
2018-08-09T16:25:59.788Z,42.88
2018-08-09T16:28:41.892Z,42.43
2018-08-09T16:31:12.264Z,41.98
2018-08-09T16:33:46.061Z,41.85
2018-08-09T16:36:20.312Z,41.24
2018-08-09T16:39:04.649Z,41.02
2018-08-09T16:41:34.203Z,40.56
2018-08-09T16:44:05.042Z,40.36
2018-08-09T16:46:34.752Z,40.15
2018-08-09T16:49:07.052Z,40.71
2018-08-09T16:51:39.917Z,40.98
2018-08-09T16:54:14.322Z,41.74
2018-08-09T16:56:51.318Z,41.88
2018-08-09T16:59:26.383Z,41.77
2018-08-09T17:02:01.403Z,41.53
2018-08-09T17:04:32.075Z,40.93
2018-08-09T17:07:02.329Z,41.26
2018-08-09T17:09:32.524Z,40.90
2018-08-09T17:12:13.584Z,40.84
2018-08-09T17:14:45.413Z,41.65
2018-08-09T17:17:19.020Z,42.18
2018-08-09T17:19:51.558Z,41.21
2018-08-09T17:22:23.424Z,41.29
2018-08-09T17:24:53.571Z,41.47
2018-08-09T17:27:23.704Z,41.11
2018-08-09T17:29:55.534Z,41.46
2018-08-09T17:35:13.825Z,40.75
2018-08-09T17:37:50.688Z,41.31
2018-08-09T17:40:35.626Z,40.75
2018-08-09T17:43:25.488Z,41.15
2018-08-09T17:46:03.691Z,44.42
2018-08-09T17:48:45.002Z,47.22
2018-08-09T17:54:00.008Z,50.26
2018-08-09T17:56:33.649Z,52.60
2018-08-09T17:59:12.924Z,54.03
2018-08-09T18:01:53.146Z,53.88
2018-08-09T18:04:27.039Z,55.67
2018-08-09T18:06:59.468Z,55.69
2018-08-09T18:09:31.330Z,56.21
2018-08-09T18:12:01.635Z,56.83
2018-08-09T18:14:33.472Z,56.67
2018-08-09T18:17:07.296Z,56.64
2018-08-09T18:19:43.082Z,57.78
2018-08-09T18:22:18.176Z,57.53
2018-08-09T18:24:51.247Z,57.12
2018-08-09T18:27:24.321Z,56.60
2018-08-09T18:29:53.820Z,56.57
2018-08-09T18:32:26.585Z,57.57
2018-08-09T18:35:09.843Z,56.39
2018-08-09T18:37:50.622Z,56.57
2018-08-09T18:43:04.889Z,55.55
2018-08-09T18:45:44.020Z,54.69
2018-08-09T18:48:16.569Z,54.24
2018-08-09T18:50:48.732Z,54.64
2018-08-09T18:53:22.499Z,54.75
2018-08-09T18:55:57.186Z,54.46
2018-08-09T18:58:31.268Z,54.38
2018-08-09T19:01:03.742Z,54.04
2018-08-09T19:03:36.688Z,54.97
2018-08-09T19:06:08.936Z,54.73
2018-08-09T19:08:46.950Z,53.60
2018-08-09T19:11:22.614Z,53.19
2018-08-09T19:13:53.392Z,53.13
2018-08-09T19:16:24.824Z,52.69
2018-08-09T19:18:55.253Z,51.98
2018-08-09T19:21:32.101Z,52.82
2018-08-09T19:24:05.902Z,52.48
2018-08-09T19:26:35.257Z,52.65
2018-08-09T19:29:07.333Z,51.86
2018-08-09T19:31:42.040Z,51.87
2018-08-09T19:34:14.313Z,53.06
2018-08-09T19:36:46.274Z,52.85
2018-08-09T19:40:24.825Z,52.94
2018-08-09T19:42:54.879Z,52.88
2018-08-09T19:45:26.370Z,52.41
2018-08-09T19:48:08.573Z,53.13
2018-08-09T19:50:43.252Z,52.03
2018-08-09T19:53:15.629Z,52.17
2018-08-09T19:55:48.348Z,52.80
2018-08-09T19:58:24.586Z,53.15
2018-08-09T20:00:55.677Z,53.38
2018-08-09T20:03:52.586Z,53.27
2018-08-09T20:06:22.572Z,52.80
2018-08-09T20:08:55.162Z,52.33
2018-08-09T20:11:26.229Z,53.03
2018-08-09T20:14:07.304Z,53.15
2018-08-09T20:16:38.991Z,53.47
2018-08-09T20:19:11.744Z,53.47
2018-08-09T20:21:50.143Z,52.52
2018-08-09T20:24:24.291Z,52.19
2018-08-09T20:26:57.621Z,52.13
2018-08-09T20:29:35.936Z,51.25
2018-08-09T20:32:12.511Z,50.69
2018-08-09T20:34:49.111Z,51.17
2018-08-09T20:37:25.961Z,51.81
2018-08-09T20:40:22.497Z,52.52
2018-08-09T20:42:57.657Z,52.60
2018-08-09T20:45:42.171Z,52.39
2018-08-09T20:48:26.689Z,53.15
2018-08-09T20:50:59.689Z,52.74
2018-08-09T20:53:46.281Z,53.17
2018-08-09T20:56:27.928Z,53.23
2018-08-09T20:59:04.507Z,53.34
2018-08-09T21:01:42.774Z,53.44
2018-08-09T21:04:20.229Z,54.59
2018-08-09T21:06:53.435Z,54.20
2018-08-09T21:09:25.373Z,55.27
2018-08-09T21:11:56.912Z,55.08
2018-08-09T21:14:44.262Z,54.81
2018-08-09T21:20:14.632Z,55.83
2018-08-09T21:22:46.711Z,55.96
2018-08-09T21:25:18.738Z,56.09
2018-08-09T21:27:55.723Z,56.16
2018-08-09T21:30:28.315Z,56.52
2018-08-09T21:33:04.317Z,56.27
2018-08-09T21:35:45.503Z,56.03
2018-08-09T21:38:32.625Z,56.42
2018-08-09T21:41:05.836Z,55.55
2018-08-09T21:43:35.899Z,56.11
2018-08-09T21:46:06.087Z,55.37
2018-08-09T21:48:36.611Z,56.10
2018-08-09T21:51:07.463Z,55.91
2018-08-09T21:53:44.139Z,55.21
2018-08-09T21:56:18.641Z,55.71
2018-08-09T21:58:53.735Z,56.30
2018-08-09T22:01:27.855Z,56.41
2018-08-09T22:04:04.592Z,56.40
2018-08-09T22:06:42.759Z,58.03
2018-08-09T22:09:25.708Z,59.94
2018-08-09T22:13:10.952Z,61.00
2018-08-09T22:15:52.368Z,60.95
2018-08-09T22:18:31.351Z,61.29
2018-08-09T22:21:10.348Z,62.06
2018-08-09T22:23:59.555Z,61.92
2018-08-09T22:26:47.490Z,61.81
2018-08-09T22:29:37.456Z,61.31
2018-08-09T22:32:12.438Z,61.94
2018-08-09T22:34:58.952Z,61.39
2018-08-09T22:37:40.494Z,61.18
2018-08-09T22:40:14.314Z,62.23
2018-08-09T22:42:49.294Z,62.09
2018-08-09T22:45:21.782Z,62.97
2018-08-09T22:47:53.945Z,63.43
2018-08-09T22:50:25.425Z,63.09
2018-08-09T22:52:59.936Z,62.76
2018-08-09T22:55:30.399Z,62.32
2018-08-09T22:58:01.624Z,62.25
2018-08-09T23:00:34.724Z,62.43
2018-08-09T23:03:04.745Z,62.49
2018-08-09T23:05:34.356Z,61.58
2018-08-09T23:08:05.663Z,62.19
2018-08-09T23:10:48.140Z,60.90
2018-08-09T23:13:20.642Z,61.93
2018-08-09T23:15:50.989Z,61.55
2018-08-09T23:18:21.866Z,62.20
2018-08-09T23:23:52.063Z,62.77
2018-08-09T23:26:22.718Z,62.53
2018-08-09T23:28:53.797Z,62.61
2018-08-09T23:31:23.787Z,62.38
2018-08-09T23:33:53.403Z,61.99
2018-08-09T23:36:23.433Z,61.59
2018-08-09T23:38:54.692Z,61.68
2018-08-09T23:41:24.029Z,60.95
2018-08-09T23:43:53.981Z,62.05
2018-08-09T23:46:26.326Z,61.57
2018-08-09T23:48:56.774Z,62.00
2018-08-09T23:51:30.060Z,61.85
2018-08-09T23:54:00.521Z,61.78
2018-08-09T23:56:33.442Z,60.37
2018-08-09T23:59:09.876Z,61.55
